sensor_id;sensor_type;location;lat;lon;timestamp;P1;durP1;ratioP1;P2;durP2;ratioP2
19024;SDS011;9645;51.448;6.260;2023-07-02T00:02:03;16.00;;;5.67;;
19024;SDS011;9645;51.448;6.260;2023-07-02T00:04:30;12.10;;;4.80;;
19024;SDS011;9645;51.448;6.260;2023-07-02T00:06:57;12.37;;;5.10;;
19024;SDS011;9645;51.448;6.260;2023-07-02T00:09:25;17.63;;;4.70;;
19024;SDS011;9645;51.448;6.260;2023-07-02T00:11:52;18.03;;;5.60;;
19024;SDS011;9645;51.448;6.260;2023-07-02T00:14:19;13.20;;;5.50;;
19024;SDS011;9645;51.448;6.260;2023-07-02T00:16:46;9.00;;;4.50;;
19024;SDS011;9645;51.448;6.260;2023-07-02T00:19:13;11.50;;;4.70;;
19024;SDS011;9645;51.448;6.260;2023-07-02T00:21:41;12.53;;;4.83;;
19024;SDS011;9645;51.448;6.260;2023-07-02T00:24:08;8.90;;;4.93;;
19024;SDS011;9645;51.448;6.260;2023-07-02T00:26:37;16.50;;;5.50;;
19024;SDS011;9645;51.448;6.260;2023-07-02T00:29:05;10.27;;;5.23;;
19024;SDS011;9645;51.448;6.260;2023-07-02T00:31:33;14.47;;;5.70;;
19024;SDS011;9645;51.448;6.260;2023-07-02T00:34:00;15.43;;;5.30;;
19024;SDS011;9645;51.448;6.260;2023-07-02T00:36:28;14.83;;;5.70;;
19024;SDS011;9645;51.448;6.260;2023-07-02T00:38:55;13.53;;;5.40;;
19024;SDS011;9645;51.448;6.260;2023-07-02T00:41:23;11.17;;;5.33;;
19024;SDS011;9645;51.448;6.260;2023-07-02T00:43:52;15.27;;;5.30;;
19024;SDS011;9645;51.448;6.260;2023-07-02T00:46:20;20.13;;;6.27;;
19024;SDS011;9645;51.448;6.260;2023-07-02T00:48:49;9.83;;;5.10;;
19024;SDS011;9645;51.448;6.260;2023-07-02T00:51:17;19.33;;;5.93;;
19024;SDS011;9645;51.448;6.260;2023-07-02T00:53:45;9.30;;;5.43;;
19024;SDS011;9645;51.448;6.260;2023-07-02T00:56:13;14.60;;;6.00;;
19024;SDS011;9645;51.448;6.260;2023-07-02T00:58:41;13.33;;;5.40;;
19024;SDS011;9645;51.448;6.260;2023-07-02T01:01:13;14.70;;;5.80;;
19024;SDS011;9645;51.448;6.260;2023-07-02T01:03:49;19.67;;;6.13;;
19024;SDS011;9645;51.448;6.260;2023-07-02T01:06:19;13.00;;;5.50;;
19024;SDS011;9645;51.448;6.260;2023-07-02T01:08:50;13.37;;;6.00;;
19024;SDS011;9645;51.448;6.260;2023-07-02T01:11:18;14.50;;;6.40;;
19024;SDS011;9645;51.448;6.260;2023-07-02T01:13:46;15.83;;;5.90;;
19024;SDS011;9645;51.448;6.260;2023-07-02T01:16:15;13.60;;;6.33;;
19024;SDS011;9645;51.448;6.260;2023-07-02T01:18:42;14.57;;;6.10;;
19024;SDS011;9645;51.448;6.260;2023-07-02T01:21:11;16.90;;;6.83;;
19024;SDS011;9645;51.448;6.260;2023-07-02T01:23:39;13.17;;;5.83;;
19024;SDS011;9645;51.448;6.260;2023-07-02T01:26:06;34.07;;;6.93;;
19024;SDS011;9645;51.448;6.260;2023-07-02T01:28:36;15.83;;;6.23;;
19024;SDS011;9645;51.448;6.260;2023-07-02T01:31:03;13.80;;;6.50;;
19024;SDS011;9645;51.448;6.260;2023-07-02T01:33:31;20.90;;;6.43;;
19024;SDS011;9645;51.448;6.260;2023-07-02T01:35:58;20.20;;;7.30;;
19024;SDS011;9645;51.448;6.260;2023-07-02T01:38:26;29.57;;;7.53;;
19024;SDS011;9645;51.448;6.260;2023-07-02T01:40:53;13.47;;;6.50;;
19024;SDS011;9645;51.448;6.260;2023-07-02T01:43:20;14.77;;;6.40;;
19024;SDS011;9645;51.448;6.260;2023-07-02T01:45:47;20.37;;;7.30;;
19024;SDS011;9645;51.448;6.260;2023-07-02T01:48:14;19.80;;;6.87;;
19024;SDS011;9645;51.448;6.260;2023-07-02T01:50:42;16.40;;;7.10;;
19024;SDS011;9645;51.448;6.260;2023-07-02T01:53:08;31.37;;;7.90;;
19024;SDS011;9645;51.448;6.260;2023-07-02T01:55:37;16.90;;;8.00;;
19024;SDS011;9645;51.448;6.260;2023-07-02T01:58:04;25.40;;;9.07;;
19024;SDS011;9645;51.448;6.260;2023-07-02T02:00:31;22.90;;;7.97;;
19024;SDS011;9645;51.448;6.260;2023-07-02T02:02:58;19.90;;;7.50;;
19024;SDS011;9645;51.448;6.260;2023-07-02T02:05:25;26.60;;;8.77;;
19024;SDS011;9645;51.448;6.260;2023-07-02T02:07:52;25.53;;;8.27;;
19024;SDS011;9645;51.448;6.260;2023-07-02T02:10:19;28.60;;;7.40;;
19024;SDS011;9645;51.448;6.260;2023-07-02T02:12:47;27.83;;;8.90;;
19024;SDS011;9645;51.448;6.260;2023-07-02T02:15:14;23.87;;;9.47;;
19024;SDS011;9645;51.448;6.260;2023-07-02T02:17:41;24.40;;;9.03;;
19024;SDS011;9645;51.448;6.260;2023-07-02T02:20:09;30.53;;;10.10;;
19024;SDS011;9645;51.448;6.260;2023-07-02T02:22:36;27.40;;;9.33;;
19024;SDS011;9645;51.448;6.260;2023-07-02T02:25:03;29.23;;;9.70;;
19024;SDS011;9645;51.448;6.260;2023-07-02T02:27:31;31.10;;;9.50;;
19024;SDS011;9645;51.448;6.260;2023-07-02T02:29:59;38.60;;;10.60;;
19024;SDS011;9645;51.448;6.260;2023-07-02T02:32:26;29.53;;;10.30;;
19024;SDS011;9645;51.448;6.260;2023-07-02T02:34:53;21.83;;;9.07;;
19024;SDS011;9645;51.448;6.260;2023-07-02T02:37:20;24.47;;;9.00;;
19024;SDS011;9645;51.448;6.260;2023-07-02T02:39:48;30.57;;;10.10;;
19024;SDS011;9645;51.448;6.260;2023-07-02T02:42:15;31.93;;;10.17;;
19024;SDS011;9645;51.448;6.260;2023-07-02T02:44:42;29.80;;;10.37;;
19024;SDS011;9645;51.448;6.260;2023-07-02T02:47:11;27.30;;;11.00;;
19024;SDS011;9645;51.448;6.260;2023-07-02T02:49:38;27.57;;;10.30;;
19024;SDS011;9645;51.448;6.260;2023-07-02T02:52:05;40.87;;;10.57;;
19024;SDS011;9645;51.448;6.260;2023-07-02T02:54:32;30.03;;;10.23;;
19024;SDS011;9645;51.448;6.260;2023-07-02T02:56:59;28.80;;;11.57;;
19024;SDS011;9645;51.448;6.260;2023-07-02T02:59:27;28.93;;;10.50;;
19024;SDS011;9645;51.448;6.260;2023-07-02T03:01:55;25.47;;;11.30;;
19024;SDS011;9645;51.448;6.260;2023-07-02T03:04:23;33.37;;;10.70;;
19024;SDS011;9645;51.448;6.260;2023-07-02T03:06:50;36.37;;;13.50;;
19024;SDS011;9645;51.448;6.260;2023-07-02T03:09:18;32.23;;;11.27;;
19024;SDS011;9645;51.448;6.260;2023-07-02T03:11:45;25.97;;;11.30;;
19024;SDS011;9645;51.448;6.260;2023-07-02T03:14:13;40.37;;;11.50;;
19024;SDS011;9645;51.448;6.260;2023-07-02T03:16:40;33.77;;;11.33;;
19024;SDS011;9645;51.448;6.260;2023-07-02T03:19:07;30.20;;;11.73;;
19024;SDS011;9645;51.448;6.260;2023-07-02T03:21:36;29.10;;;12.07;;
19024;SDS011;9645;51.448;6.260;2023-07-02T03:24:03;28.70;;;11.57;;
19024;SDS011;9645;51.448;6.260;2023-07-02T03:26:30;40.83;;;12.77;;
19024;SDS011;9645;51.448;6.260;2023-07-02T03:28:57;34.63;;;12.67;;
19024;SDS011;9645;51.448;6.260;2023-07-02T03:31:24;34.10;;;12.20;;
19024;SDS011;9645;51.448;6.260;2023-07-02T03:33:50;31.17;;;12.77;;
19024;SDS011;9645;51.448;6.260;2023-07-02T03:36:18;35.87;;;12.20;;
19024;SDS011;9645;51.448;6.260;2023-07-02T03:38:46;30.30;;;12.33;;
19024;SDS011;9645;51.448;6.260;2023-07-02T03:41:13;38.30;;;13.93;;
19024;SDS011;9645;51.448;6.260;2023-07-02T03:43:40;36.17;;;12.50;;
19024;SDS011;9645;51.448;6.260;2023-07-02T03:46:07;37.87;;;11.77;;
19024;SDS011;9645;51.448;6.260;2023-07-02T03:48:34;39.03;;;13.23;;
19024;SDS011;9645;51.448;6.260;2023-07-02T03:51:01;31.57;;;12.53;;
19024;SDS011;9645;51.448;6.260;2023-07-02T03:53:29;34.67;;;14.00;;
19024;SDS011;9645;51.448;6.260;2023-07-02T03:55:57;50.87;;;13.57;;
19024;SDS011;9645;51.448;6.260;2023-07-02T03:58:24;39.17;;;13.13;;
19024;SDS011;9645;51.448;6.260;2023-07-02T04:00:52;36.80;;;13.50;;
19024;SDS011;9645;51.448;6.260;2023-07-02T04:03:19;34.73;;;12.57;;
19024;SDS011;9645;51.448;6.260;2023-07-02T04:05:46;36.10;;;12.60;;
19024;SDS011;9645;51.448;6.260;2023-07-02T04:08:13;38.40;;;13.53;;
19024;SDS011;9645;51.448;6.260;2023-07-02T04:10:40;33.50;;;12.30;;
19024;SDS011;9645;51.448;6.260;2023-07-02T04:13:09;37.70;;;13.87;;
19024;SDS011;9645;51.448;6.260;2023-07-02T04:15:36;38.43;;;14.37;;
19024;SDS011;9645;51.448;6.260;2023-07-02T04:18:03;39.20;;;14.60;;
19024;SDS011;9645;51.448;6.260;2023-07-02T04:20:30;31.13;;;12.37;;
19024;SDS011;9645;51.448;6.260;2023-07-02T04:22:56;35.40;;;13.23;;
19024;SDS011;9645;51.448;6.260;2023-07-02T04:25:24;39.77;;;14.37;;
19024;SDS011;9645;51.448;6.260;2023-07-02T04:27:51;38.87;;;14.07;;
19024;SDS011;9645;51.448;6.260;2023-07-02T04:30:23;35.67;;;13.63;;
19024;SDS011;9645;51.448;6.260;2023-07-02T04:32:51;42.27;;;14.77;;
19024;SDS011;9645;51.448;6.260;2023-07-02T04:35:18;48.03;;;14.10;;
19024;SDS011;9645;51.448;6.260;2023-07-02T04:37:45;35.53;;;14.57;;
19024;SDS011;9645;51.448;6.260;2023-07-02T04:40:13;39.70;;;13.00;;
19024;SDS011;9645;51.448;6.260;2023-07-02T04:42:41;34.83;;;13.60;;
19024;SDS011;9645;51.448;6.260;2023-07-02T04:45:12;31.03;;;12.43;;
19024;SDS011;9645;51.448;6.260;2023-07-02T04:47:41;35.57;;;13.73;;
19024;SDS011;9645;51.448;6.260;2023-07-02T04:50:09;42.83;;;14.63;;
19024;SDS011;9645;51.448;6.260;2023-07-02T04:52:36;47.00;;;14.27;;
19024;SDS011;9645;51.448;6.260;2023-07-02T04:55:05;35.57;;;14.10;;
19024;SDS011;9645;51.448;6.260;2023-07-02T04:57:32;39.77;;;13.80;;
19024;SDS011;9645;51.448;6.260;2023-07-02T04:59:59;45.17;;;15.57;;
19024;SDS011;9645;51.448;6.260;2023-07-02T05:02:28;43.63;;;14.40;;
19024;SDS011;9645;51.448;6.260;2023-07-02T05:04:56;38.80;;;12.97;;
19024;SDS011;9645;51.448;6.260;2023-07-02T05:07:23;38.03;;;14.33;;
19024;SDS011;9645;51.448;6.260;2023-07-02T05:09:51;39.03;;;13.37;;
19024;SDS011;9645;51.448;6.260;2023-07-02T05:12:18;49.10;;;14.20;;
19024;SDS011;9645;51.448;6.260;2023-07-02T05:14:45;39.90;;;13.70;;
19024;SDS011;9645;51.448;6.260;2023-07-02T05:17:13;44.63;;;14.97;;
19024;SDS011;9645;51.448;6.260;2023-07-02T05:19:42;43.23;;;13.80;;
19024;SDS011;9645;51.448;6.260;2023-07-02T05:22:12;37.73;;;12.63;;
19024;SDS011;9645;51.448;6.260;2023-07-02T05:24:39;38.17;;;13.47;;
19024;SDS011;9645;51.448;6.260;2023-07-02T05:27:06;37.60;;;12.80;;
19024;SDS011;9645;51.448;6.260;2023-07-02T05:29:33;31.93;;;12.23;;
19024;SDS011;9645;51.448;6.260;2023-07-02T05:32:00;33.13;;;11.70;;
19024;SDS011;9645;51.448;6.260;2023-07-02T05:34:27;37.03;;;12.70;;
19024;SDS011;9645;51.448;6.260;2023-07-02T05:36:54;39.60;;;12.87;;
19024;SDS011;9645;51.448;6.260;2023-07-02T05:39:22;33.00;;;12.60;;
19024;SDS011;9645;51.448;6.260;2023-07-02T05:41:49;28.23;;;10.90;;
19024;SDS011;9645;51.448;6.260;2023-07-02T05:44:16;39.80;;;12.20;;
19024;SDS011;9645;51.448;6.260;2023-07-02T05:46:43;32.33;;;10.93;;
19024;SDS011;9645;51.448;6.260;2023-07-02T05:49:11;40.97;;;13.50;;
19024;SDS011;9645;51.448;6.260;2023-07-02T05:51:38;33.10;;;12.00;;
19024;SDS011;9645;51.448;6.260;2023-07-02T05:54:05;29.57;;;12.30;;
19024;SDS011;9645;51.448;6.260;2023-07-02T05:56:33;40.87;;;12.10;;
19024;SDS011;9645;51.448;6.260;2023-07-02T05:59:00;32.70;;;12.57;;
19024;SDS011;9645;51.448;6.260;2023-07-02T06:01:27;30.70;;;11.70;;
19024;SDS011;9645;51.448;6.260;2023-07-02T06:03:54;37.00;;;12.33;;
19024;SDS011;9645;51.448;6.260;2023-07-02T06:06:21;32.23;;;10.90;;
19024;SDS011;9645;51.448;6.260;2023-07-02T06:08:49;33.60;;;11.10;;
19024;SDS011;9645;51.448;6.260;2023-07-02T06:11:16;27.70;;;11.13;;
19024;SDS011;9645;51.448;6.260;2023-07-02T06:13:44;26.97;;;10.60;;
19024;SDS011;9645;51.448;6.260;2023-07-02T06:16:11;28.93;;;10.20;;
19024;SDS011;9645;51.448;6.260;2023-07-02T06:18:38;27.20;;;9.93;;
19024;SDS011;9645;51.448;6.260;2023-07-02T06:21:06;36.93;;;10.93;;
19024;SDS011;9645;51.448;6.260;2023-07-02T06:23:39;24.97;;;10.10;;
19024;SDS011;9645;51.448;6.260;2023-07-02T06:26:07;30.70;;;10.57;;
19024;SDS011;9645;51.448;6.260;2023-07-02T06:28:34;31.10;;;9.90;;
19024;SDS011;9645;51.448;6.260;2023-07-02T06:31:02;28.53;;;10.10;;
19024;SDS011;9645;51.448;6.260;2023-07-02T06:33:29;27.33;;;9.67;;
19024;SDS011;9645;51.448;6.260;2023-07-02T06:35:56;22.23;;;9.37;;
19024;SDS011;9645;51.448;6.260;2023-07-02T06:38:23;26.00;;;9.40;;
19024;SDS011;9645;51.448;6.260;2023-07-02T06:40:50;31.43;;;9.50;;
19024;SDS011;9645;51.448;6.260;2023-07-02T06:43:17;22.73;;;10.13;;
19024;SDS011;9645;51.448;6.260;2023-07-02T06:45:44;29.03;;;10.33;;
19024;SDS011;9645;51.448;6.260;2023-07-02T06:48:13;39.57;;;9.90;;
19024;SDS011;9645;51.448;6.260;2023-07-02T06:50:43;32.17;;;9.70;;
19024;SDS011;9645;51.448;6.260;2023-07-02T06:53:10;26.40;;;9.83;;
19024;SDS011;9645;51.448;6.260;2023-07-02T06:55:38;33.93;;;10.27;;
19024;SDS011;9645;51.448;6.260;2023-07-02T06:58:05;28.43;;;8.37;;
19024;SDS011;9645;51.448;6.260;2023-07-02T07:00:32;31.73;;;8.83;;
19024;SDS011;9645;51.448;6.260;2023-07-02T07:03:00;25.73;;;9.50;;
19024;SDS011;9645;51.448;6.260;2023-07-02T07:05:29;25.07;;;9.30;;
19024;SDS011;9645;51.448;6.260;2023-07-02T07:07:56;28.40;;;8.90;;
19024;SDS011;9645;51.448;6.260;2023-07-02T07:10:23;33.60;;;9.57;;
19024;SDS011;9645;51.448;6.260;2023-07-02T07:12:50;22.17;;;8.70;;
19024;SDS011;9645;51.448;6.260;2023-07-02T07:15:17;27.53;;;8.70;;
19024;SDS011;9645;51.448;6.260;2023-07-02T07:17:44;23.57;;;7.43;;
19024;SDS011;9645;51.448;6.260;2023-07-02T07:20:11;19.77;;;7.53;;
19024;SDS011;9645;51.448;6.260;2023-07-02T07:22:40;18.90;;;8.03;;
19024;SDS011;9645;51.448;6.260;2023-07-02T07:25:08;23.63;;;6.70;;
19024;SDS011;9645;51.448;6.260;2023-07-02T07:27:35;19.43;;;6.40;;
19024;SDS011;9645;51.448;6.260;2023-07-02T07:30:02;21.03;;;6.67;;
19024;SDS011;9645;51.448;6.260;2023-07-02T07:32:29;27.33;;;7.10;;
19024;SDS011;9645;51.448;6.260;2023-07-02T07:34:56;18.50;;;6.67;;
19024;SDS011;9645;51.448;6.260;2023-07-02T07:37:23;18.17;;;6.83;;
19024;SDS011;9645;51.448;6.260;2023-07-02T07:39:52;20.13;;;7.10;;
19024;SDS011;9645;51.448;6.260;2023-07-02T07:42:19;18.30;;;6.30;;
19024;SDS011;9645;51.448;6.260;2023-07-02T07:44:46;19.43;;;7.03;;
19024;SDS011;9645;51.448;6.260;2023-07-02T07:47:13;20.23;;;7.13;;
19024;SDS011;9645;51.448;6.260;2023-07-02T07:49:40;17.50;;;6.43;;
19024;SDS011;9645;51.448;6.260;2023-07-02T07:52:08;22.37;;;6.10;;
19024;SDS011;9645;51.448;6.260;2023-07-02T07:54:34;17.23;;;5.40;;
19024;SDS011;9645;51.448;6.260;2023-07-02T07:57:03;18.73;;;5.83;;
19024;SDS011;9645;51.448;6.260;2023-07-02T07:59:31;17.47;;;6.03;;
19024;SDS011;9645;51.448;6.260;2023-07-02T08:01:58;19.20;;;6.00;;
19024;SDS011;9645;51.448;6.260;2023-07-02T08:04:25;18.90;;;6.30;;
19024;SDS011;9645;51.448;6.260;2023-07-02T08:06:52;17.20;;;6.40;;
19024;SDS011;9645;51.448;6.260;2023-07-02T08:09:22;18.63;;;7.07;;
19024;SDS011;9645;51.448;6.260;2023-07-02T08:11:49;17.10;;;6.00;;
19024;SDS011;9645;51.448;6.260;2023-07-02T08:14:17;14.53;;;6.43;;
19024;SDS011;9645;51.448;6.260;2023-07-02T08:16:46;17.87;;;7.10;;
19024;SDS011;9645;51.448;6.260;2023-07-02T08:19:13;16.67;;;6.23;;
19024;SDS011;9645;51.448;6.260;2023-07-02T08:21:40;19.27;;;6.47;;
19024;SDS011;9645;51.448;6.260;2023-07-02T08:24:07;17.47;;;6.17;;
19024;SDS011;9645;51.448;6.260;2023-07-02T08:26:34;18.73;;;6.80;;
19024;SDS011;9645;51.448;6.260;2023-07-02T08:29:02;22.03;;;6.33;;
19024;SDS011;9645;51.448;6.260;2023-07-02T08:31:30;25.50;;;7.63;;
19024;SDS011;9645;51.448;6.260;2023-07-02T08:33:57;19.00;;;7.33;;
19024;SDS011;9645;51.448;6.260;2023-07-02T08:36:24;26.70;;;6.60;;
19024;SDS011;9645;51.448;6.260;2023-07-02T08:38:51;21.37;;;6.53;;
19024;SDS011;9645;51.448;6.260;2023-07-02T08:41:19;22.60;;;6.57;;
19024;SDS011;9645;51.448;6.260;2023-07-02T08:43:47;20.43;;;6.33;;
19024;SDS011;9645;51.448;6.260;2023-07-02T08:46:14;17.20;;;6.47;;
19024;SDS011;9645;51.448;6.260;2023-07-02T08:48:43;23.83;;;7.10;;
19024;SDS011;9645;51.448;6.260;2023-07-02T08:51:10;17.53;;;5.40;;
19024;SDS011;9645;51.448;6.260;2023-07-02T08:53:37;15.33;;;6.57;;
19024;SDS011;9645;51.448;6.260;2023-07-02T08:56:04;15.20;;;5.50;;
19024;SDS011;9645;51.448;6.260;2023-07-02T08:58:31;17.27;;;5.57;;
19024;SDS011;9645;51.448;6.260;2023-07-02T09:01:04;17.70;;;5.80;;
19024;SDS011;9645;51.448;6.260;2023-07-02T09:03:32;14.97;;;4.73;;
19024;SDS011;9645;51.448;6.260;2023-07-02T09:06:03;14.27;;;5.50;;
19024;SDS011;9645;51.448;6.260;2023-07-02T09:08:30;13.80;;;5.00;;
19024;SDS011;9645;51.448;6.260;2023-07-02T09:11:09;20.20;;;6.07;;
19024;SDS011;9645;51.448;6.260;2023-07-02T09:13:43;15.33;;;5.70;;
19024;SDS011;9645;51.448;6.260;2023-07-02T09:18:59;12.10;;;5.50;;
19024;SDS011;9645;51.448;6.260;2023-07-02T09:21:37;13.40;;;5.70;;
19024;SDS011;9645;51.448;6.260;2023-07-02T09:24:14;19.50;;;5.87;;
19024;SDS011;9645;51.448;6.260;2023-07-02T09:26:42;18.10;;;6.17;;
19024;SDS011;9645;51.448;6.260;2023-07-02T09:29:10;11.67;;;6.00;;
19024;SDS011;9645;51.448;6.260;2023-07-02T09:31:44;13.73;;;5.50;;
19024;SDS011;9645;51.448;6.260;2023-07-02T09:34:11;13.23;;;5.30;;
19024;SDS011;9645;51.448;6.260;2023-07-02T09:36:40;25.80;;;6.00;;
19024;SDS011;9645;51.448;6.260;2023-07-02T09:39:08;16.50;;;6.23;;
19024;SDS011;9645;51.448;6.260;2023-07-02T09:41:38;18.80;;;6.40;;
19024;SDS011;9645;51.448;6.260;2023-07-02T09:44:07;17.00;;;6.67;;
19024;SDS011;9645;51.448;6.260;2023-07-02T09:46:36;15.07;;;5.93;;
19024;SDS011;9645;51.448;6.260;2023-07-02T09:49:08;13.87;;;5.00;;
19024;SDS011;9645;51.448;6.260;2023-07-02T09:51:41;14.67;;;5.47;;
19024;SDS011;9645;51.448;6.260;2023-07-02T09:54:10;20.63;;;5.77;;
19024;SDS011;9645;51.448;6.260;2023-07-02T09:56:37;18.37;;;5.43;;
19024;SDS011;9645;51.448;6.260;2023-07-02T09:59:04;18.33;;;6.60;;
19024;SDS011;9645;51.448;6.260;2023-07-02T10:01:31;15.97;;;5.73;;
19024;SDS011;9645;51.448;6.260;2023-07-02T10:03:58;13.83;;;5.87;;
19024;SDS011;9645;51.448;6.260;2023-07-02T10:06:45;15.40;;;6.00;;
19024;SDS011;9645;51.448;6.260;2023-07-02T10:09:12;19.03;;;6.63;;
19024;SDS011;9645;51.448;6.260;2023-07-02T10:11:39;20.07;;;6.40;;
19024;SDS011;9645;51.448;6.260;2023-07-02T10:14:07;15.20;;;6.27;;
19024;SDS011;9645;51.448;6.260;2023-07-02T10:16:34;14.67;;;7.20;;
19024;SDS011;9645;51.448;6.260;2023-07-02T10:19:14;11.23;;;5.43;;
19024;SDS011;9645;51.448;6.260;2023-07-02T10:21:47;20.93;;;6.13;;
19024;SDS011;9645;51.448;6.260;2023-07-02T10:24:32;13.83;;;5.40;;
19024;SDS011;9645;51.448;6.260;2023-07-02T10:27:00;15.73;;;5.00;;
19024;SDS011;9645;51.448;6.260;2023-07-02T10:29:30;16.97;;;5.80;;
19024;SDS011;9645;51.448;6.260;2023-07-02T10:31:58;14.00;;;5.27;;
19024;SDS011;9645;51.448;6.260;2023-07-02T10:34:30;24.40;;;5.70;;
19024;SDS011;9645;51.448;6.260;2023-07-02T10:37:01;16.97;;;5.80;;
19024;SDS011;9645;51.448;6.260;2023-07-02T10:39:28;22.03;;;6.37;;
19024;SDS011;9645;51.448;6.260;2023-07-02T10:42:11;16.50;;;5.50;;
19024;SDS011;9645;51.448;6.260;2023-07-02T10:44:47;10.80;;;5.20;;
19024;SDS011;9645;51.448;6.260;2023-07-02T10:47:16;18.37;;;5.50;;
19024;SDS011;9645;51.448;6.260;2023-07-02T10:49:44;19.57;;;5.30;;
19024;SDS011;9645;51.448;6.260;2023-07-02T10:52:14;17.07;;;5.83;;
19024;SDS011;9645;51.448;6.260;2023-07-02T10:54:42;12.63;;;5.73;;
19024;SDS011;9645;51.448;6.260;2023-07-02T10:57:10;11.80;;;5.77;;
19024;SDS011;9645;51.448;6.260;2023-07-02T10:59:40;10.20;;;5.43;;
19024;SDS011;9645;51.448;6.260;2023-07-02T11:02:08;13.17;;;5.00;;
19024;SDS011;9645;51.448;6.260;2023-07-02T11:04:36;18.20;;;5.40;;
19024;SDS011;9645;51.448;6.260;2023-07-02T11:07:04;15.53;;;5.03;;
19024;SDS011;9645;51.448;6.260;2023-07-02T11:09:49;10.13;;;5.60;;
19024;SDS011;9645;51.448;6.260;2023-07-02T11:12:17;16.43;;;5.53;;
19024;SDS011;9645;51.448;6.260;2023-07-02T11:14:44;20.33;;;6.10;;
19024;SDS011;9645;51.448;6.260;2023-07-02T11:17:11;16.80;;;5.63;;
19024;SDS011;9645;51.448;6.260;2023-07-02T11:19:38;10.47;;;5.60;;
19024;SDS011;9645;51.448;6.260;2023-07-02T11:22:05;16.00;;;5.93;;
19024;SDS011;9645;51.448;6.260;2023-07-02T11:24:32;16.40;;;5.60;;
19024;SDS011;9645;51.448;6.260;2023-07-02T11:27:02;17.70;;;5.87;;
19024;SDS011;9645;51.448;6.260;2023-07-02T11:29:46;16.23;;;5.77;;
19024;SDS011;9645;51.448;6.260;2023-07-02T11:32:26;16.90;;;5.40;;
19024;SDS011;9645;51.448;6.260;2023-07-02T11:34:55;15.93;;;5.27;;
19024;SDS011;9645;51.448;6.260;2023-07-02T11:37:28;17.10;;;5.80;;
19024;SDS011;9645;51.448;6.260;2023-07-02T11:39:57;16.77;;;6.10;;
19024;SDS011;9645;51.448;6.260;2023-07-02T11:42:24;17.23;;;5.57;;
19024;SDS011;9645;51.448;6.260;2023-07-02T11:44:51;25.03;;;6.50;;
19024;SDS011;9645;51.448;6.260;2023-07-02T11:47:18;14.90;;;6.90;;
19024;SDS011;9645;51.448;6.260;2023-07-02T11:49:45;17.30;;;7.10;;
19024;SDS011;9645;51.448;6.260;2023-07-02T11:52:12;12.33;;;6.47;;
19024;SDS011;9645;51.448;6.260;2023-07-02T11:54:39;14.53;;;6.77;;
19024;SDS011;9645;51.448;6.260;2023-07-02T11:57:08;21.90;;;6.50;;
19024;SDS011;9645;51.448;6.260;2023-07-02T11:59:35;18.17;;;6.77;;
19024;SDS011;9645;51.448;6.260;2023-07-02T12:02:03;13.23;;;6.80;;
19024;SDS011;9645;51.448;6.260;2023-07-02T12:04:30;13.87;;;6.40;;
19024;SDS011;9645;51.448;6.260;2023-07-02T12:06:57;14.03;;;6.73;;
19024;SDS011;9645;51.448;6.260;2023-07-02T12:09:26;15.57;;;7.07;;
19024;SDS011;9645;51.448;6.260;2023-07-02T12:11:53;16.97;;;7.17;;
19024;SDS011;9645;51.448;6.260;2023-07-02T12:14:22;16.87;;;8.63;;
19024;SDS011;9645;51.448;6.260;2023-07-02T12:16:48;16.93;;;8.20;;
19024;SDS011;9645;51.448;6.260;2023-07-02T12:19:15;19.00;;;8.40;;
19024;SDS011;9645;51.448;6.260;2023-07-02T12:21:42;19.00;;;7.73;;
19024;SDS011;9645;51.448;6.260;2023-07-02T12:24:09;18.53;;;8.00;;
19024;SDS011;9645;51.448;6.260;2023-07-02T12:26:36;15.63;;;6.97;;
19024;SDS011;9645;51.448;6.260;2023-07-02T12:29:03;24.97;;;7.77;;
19024;SDS011;9645;51.448;6.260;2023-07-02T12:31:31;28.50;;;9.10;;
19024;SDS011;9645;51.448;6.260;2023-07-02T12:33:58;21.70;;;7.90;;
19024;SDS011;9645;51.448;6.260;2023-07-02T12:36:25;21.43;;;8.10;;
19024;SDS011;9645;51.448;6.260;2023-07-02T12:38:52;23.03;;;7.53;;
19024;SDS011;9645;51.448;6.260;2023-07-02T12:41:19;19.97;;;8.27;;
19024;SDS011;9645;51.448;6.260;2023-07-02T12:43:46;15.40;;;7.40;;
19024;SDS011;9645;51.448;6.260;2023-07-02T12:46:13;20.90;;;8.37;;
19024;SDS011;9645;51.448;6.260;2023-07-02T12:48:41;19.60;;;8.50;;
19024;SDS011;9645;51.448;6.260;2023-07-02T12:51:09;25.23;;;9.43;;
19024;SDS011;9645;51.448;6.260;2023-07-02T12:53:36;23.10;;;8.80;;
19024;SDS011;9645;51.448;6.260;2023-07-02T12:56:03;22.37;;;8.40;;
19024;SDS011;9645;51.448;6.260;2023-07-02T12:58:31;22.23;;;8.40;;
19024;SDS011;9645;51.448;6.260;2023-07-02T13:00:58;21.37;;;8.60;;
19024;SDS011;9645;51.448;6.260;2023-07-02T13:03:25;23.27;;;9.13;;
19024;SDS011;9645;51.448;6.260;2023-07-02T13:05:53;23.37;;;8.67;;
19024;SDS011;9645;51.448;6.260;2023-07-02T13:08:20;21.47;;;8.57;;
19024;SDS011;9645;51.448;6.260;2023-07-02T13:10:47;18.93;;;7.37;;
19024;SDS011;9645;51.448;6.260;2023-07-02T13:13:14;21.00;;;7.73;;
19024;SDS011;9645;51.448;6.260;2023-07-02T13:15:41;19.90;;;9.13;;
19024;SDS011;9645;51.448;6.260;2023-07-02T13:18:07;20.90;;;8.37;;
19024;SDS011;9645;51.448;6.260;2023-07-02T13:20:34;25.13;;;8.30;;
19024;SDS011;9645;51.448;6.260;2023-07-02T13:23:04;22.47;;;7.90;;
19024;SDS011;9645;51.448;6.260;2023-07-02T13:25:31;21.40;;;8.33;;
19024;SDS011;9645;51.448;6.260;2023-07-02T13:27:58;29.17;;;8.53;;
19024;SDS011;9645;51.448;6.260;2023-07-02T13:30:25;33.83;;;9.60;;
19024;SDS011;9645;51.448;6.260;2023-07-02T13:32:53;25.13;;;8.53;;
19024;SDS011;9645;51.448;6.260;2023-07-02T13:35:20;21.80;;;8.60;;
19024;SDS011;9645;51.448;6.260;2023-07-02T13:37:47;21.43;;;8.17;;
19024;SDS011;9645;51.448;6.260;2023-07-02T13:40:16;19.63;;;7.33;;
19024;SDS011;9645;51.448;6.260;2023-07-02T13:42:43;18.60;;;8.33;;
19024;SDS011;9645;51.448;6.260;2023-07-02T13:45:10;16.77;;;8.60;;
19024;SDS011;9645;51.448;6.260;2023-07-02T13:47:37;18.27;;;7.40;;
19024;SDS011;9645;51.448;6.260;2023-07-02T13:50:04;32.70;;;8.37;;
19024;SDS011;9645;51.448;6.260;2023-07-02T13:52:32;18.50;;;6.93;;
19024;SDS011;9645;51.448;6.260;2023-07-02T13:54:59;16.40;;;7.60;;
19024;SDS011;9645;51.448;6.260;2023-07-02T13:57:27;16.90;;;7.27;;
19024;SDS011;9645;51.448;6.260;2023-07-02T13:59:56;18.70;;;7.17;;
19024;SDS011;9645;51.448;6.260;2023-07-02T14:02:23;22.30;;;7.30;;
19024;SDS011;9645;51.448;6.260;2023-07-02T14:04:50;25.37;;;7.70;;
19024;SDS011;9645;51.448;6.260;2023-07-02T14:07:17;24.77;;;8.50;;
19024;SDS011;9645;51.448;6.260;2023-07-02T14:09:44;11.23;;;6.47;;
19024;SDS011;9645;51.448;6.260;2023-07-02T14:12:11;18.87;;;7.43;;
19024;SDS011;9645;51.448;6.260;2023-07-02T14:14:38;11.53;;;6.20;;
19024;SDS011;9645;51.448;6.260;2023-07-02T14:17:07;17.03;;;6.60;;
19024;SDS011;9645;51.448;6.260;2023-07-02T14:19:34;21.30;;;6.27;;
19024;SDS011;9645;51.448;6.260;2023-07-02T14:22:01;14.27;;;6.33;;
19024;SDS011;9645;51.448;6.260;2023-07-02T14:24:28;12.67;;;6.10;;
19024;SDS011;9645;51.448;6.260;2023-07-02T14:26:55;13.40;;;6.33;;
19024;SDS011;9645;51.448;6.260;2023-07-02T14:29:22;15.87;;;5.73;;
19024;SDS011;9645;51.448;6.260;2023-07-02T14:31:49;13.83;;;6.00;;
19024;SDS011;9645;51.448;6.260;2023-07-02T14:34:18;14.97;;;6.37;;
19024;SDS011;9645;51.448;6.260;2023-07-02T14:36:45;18.20;;;6.73;;
19024;SDS011;9645;51.448;6.260;2023-07-02T14:39:12;18.23;;;6.77;;
19024;SDS011;9645;51.448;6.260;2023-07-02T14:41:38;13.67;;;5.80;;
19024;SDS011;9645;51.448;6.260;2023-07-02T14:44:05;14.40;;;6.23;;
19024;SDS011;9645;51.448;6.260;2023-07-02T14:46:32;13.03;;;6.00;;
19024;SDS011;9645;51.448;6.260;2023-07-02T14:48:59;13.83;;;5.80;;
19024;SDS011;9645;51.448;6.260;2023-07-02T14:51:28;12.87;;;6.20;;